sensor_id;sensor_type;location;lat;lon;timestamp;P1;durP1;ratioP1;P2;durP2;ratioP2
77170;SDS011;66144;50.020;14.422;2023-02-05T00:01:42;2.42;;;1.33;;
77170;SDS011;66144;50.020;14.422;2023-02-05T00:04:08;3.75;;;1.48;;
77170;SDS011;66144;50.020;14.422;2023-02-05T00:06:33;4.55;;;1.52;;
77170;SDS011;66144;50.020;14.422;2023-02-05T00:08:59;3.67;;;1.45;;
77170;SDS011;66144;50.020;14.422;2023-02-05T00:13:50;4.70;;;1.20;;
77170;SDS011;66144;50.020;14.422;2023-02-05T00:18:42;3.70;;;1.30;;
77170;SDS011;66144;50.020;14.422;2023-02-05T00:21:08;3.75;;;1.25;;
77170;SDS011;66144;50.020;14.422;2023-02-05T00:23:34;2.17;;;1.10;;
77170;SDS011;66144;50.020;14.422;2023-02-05T00:26:00;3.22;;;1.60;;
77170;SDS011;66144;50.020;14.422;2023-02-05T00:30:51;3.83;;;1.60;;
77170;SDS011;66144;50.020;14.422;2023-02-05T00:33:16;6.07;;;1.20;;
77170;SDS011;66144;50.020;14.422;2023-02-05T00:35:42;4.47;;;1.40;;
77170;SDS011;66144;50.020;14.422;2023-02-05T00:40:33;5.43;;;1.70;;
77170;SDS011;66144;50.020;14.422;2023-02-05T00:42:58;4.65;;;2.42;;
77170;SDS011;66144;50.020;14.422;2023-02-05T00:45:24;5.70;;;2.50;;
77170;SDS011;66144;50.020;14.422;2023-02-05T00:47:49;5.28;;;2.28;;
77170;SDS011;66144;50.020;14.422;2023-02-05T00:50:15;3.97;;;1.88;;
77170;SDS011;66144;50.020;14.422;2023-02-05T00:52:40;5.47;;;2.30;;
77170;SDS011;66144;50.020;14.422;2023-02-05T00:55:06;3.80;;;1.50;;
77170;SDS011;66144;50.020;14.422;2023-02-05T00:57:31;4.82;;;1.90;;
77170;SDS011;66144;50.020;14.422;2023-02-05T00:59:57;3.15;;;1.70;;
77170;SDS011;66144;50.020;14.422;2023-02-05T01:02:22;3.83;;;1.88;;
77170;SDS011;66144;50.020;14.422;2023-02-05T01:04:49;4.38;;;1.63;;
77170;SDS011;66144;50.020;14.422;2023-02-05T01:07:16;3.38;;;1.90;;
77170;SDS011;66144;50.020;14.422;2023-02-05T01:09:43;3.90;;;1.65;;
77170;SDS011;66144;50.020;14.422;2023-02-05T01:12:08;4.35;;;2.45;;
77170;SDS011;66144;50.020;14.422;2023-02-05T01:14:34;3.83;;;1.95;;
77170;SDS011;66144;50.020;14.422;2023-02-05T01:16:59;4.60;;;1.73;;
77170;SDS011;66144;50.020;14.422;2023-02-05T01:19:25;5.43;;;1.83;;
77170;SDS011;66144;50.020;14.422;2023-02-05T01:21:50;7.78;;;2.00;;
77170;SDS011;66144;50.020;14.422;2023-02-05T01:24:15;5.15;;;1.67;;
77170;SDS011;66144;50.020;14.422;2023-02-05T01:26:41;4.78;;;1.75;;
77170;SDS011;66144;50.020;14.422;2023-02-05T01:29:06;3.38;;;1.63;;
77170;SDS011;66144;50.020;14.422;2023-02-05T01:31:31;3.55;;;1.50;;
77170;SDS011;66144;50.020;14.422;2023-02-05T01:33:57;5.10;;;1.52;;
77170;SDS011;66144;50.020;14.422;2023-02-05T01:36:22;3.33;;;1.45;;
77170;SDS011;66144;50.020;14.422;2023-02-05T01:38:48;3.35;;;1.20;;
77170;SDS011;66144;50.020;14.422;2023-02-05T01:41:13;3.85;;;1.40;;
77170;SDS011;66144;50.020;14.422;2023-02-05T01:43:39;2.70;;;1.17;;
77170;SDS011;66144;50.020;14.422;2023-02-05T01:46:20;2.83;;;1.33;;
77170;SDS011;66144;50.020;14.422;2023-02-05T01:48:50;1.83;;;1.05;;
77170;SDS011;66144;50.020;14.422;2023-02-05T01:51:21;2.78;;;1.05;;
77170;SDS011;66144;50.020;14.422;2023-02-05T01:53:48;3.17;;;1.42;;
77170;SDS011;66144;50.020;14.422;2023-02-05T01:56:37;2.97;;;1.50;;
77170;SDS011;66144;50.020;14.422;2023-02-05T01:59:14;3.90;;;1.63;;
77170;SDS011;66144;50.020;14.422;2023-02-05T02:01:43;2.13;;;1.00;;
77170;SDS011;66144;50.020;14.422;2023-02-05T02:04:08;2.22;;;1.20;;
77170;SDS011;66144;50.020;14.422;2023-02-05T02:06:38;2.38;;;1.20;;
77170;SDS011;66144;50.020;14.422;2023-02-05T02:09:04;2.45;;;1.05;;
77170;SDS011;66144;50.020;14.422;2023-02-05T02:11:32;3.25;;;1.75;;
77170;SDS011;66144;50.020;14.422;2023-02-05T02:14:02;4.65;;;1.55;;
77170;SDS011;66144;50.020;14.422;2023-02-05T02:16:33;3.28;;;1.70;;
77170;SDS011;66144;50.020;14.422;2023-02-05T02:19:01;4.13;;;1.73;;
77170;SDS011;66144;50.020;14.422;2023-02-05T02:29:25;2.90;;;1.20;;
77170;SDS011;66144;50.020;14.422;2023-02-05T02:31:58;2.95;;;1.40;;
77170;SDS011;66144;50.020;14.422;2023-02-05T02:34:46;3.53;;;1.33;;
77170;SDS011;66144;50.020;14.422;2023-02-05T02:37:20;5.10;;;1.92;;
77170;SDS011;66144;50.020;14.422;2023-02-05T02:39:56;6.00;;;2.10;;
77170;SDS011;66144;50.020;14.422;2023-02-05T02:42:30;5.55;;;2.35;;
77170;SDS011;66144;50.020;14.422;2023-02-05T02:44:59;9.63;;;1.55;;
77170;SDS011;66144;50.020;14.422;2023-02-05T02:47:30;4.35;;;2.10;;
77170;SDS011;66144;50.020;14.422;2023-02-05T02:50:22;4.40;;;1.88;;
77170;SDS011;66144;50.020;14.422;2023-02-05T02:52:49;3.72;;;2.03;;
77170;SDS011;66144;50.020;14.422;2023-02-05T02:55:16;3.80;;;1.50;;
77170;SDS011;66144;50.020;14.422;2023-02-05T02:57:45;5.97;;;2.55;;
77170;SDS011;66144;50.020;14.422;2023-02-05T03:00:23;6.40;;;2.83;;
77170;SDS011;66144;50.020;14.422;2023-02-05T03:02:51;5.22;;;2.03;;
77170;SDS011;66144;50.020;14.422;2023-02-05T03:05:20;4.88;;;2.47;;
77170;SDS011;66144;50.020;14.422;2023-02-05T03:07:55;6.78;;;2.47;;
77170;SDS011;66144;50.020;14.422;2023-02-05T03:12:59;5.10;;;2.28;;
77170;SDS011;66144;50.020;14.422;2023-02-05T03:15:25;5.55;;;2.53;;
77170;SDS011;66144;50.020;14.422;2023-02-05T03:17:51;3.25;;;1.70;;
77170;SDS011;66144;50.020;14.422;2023-02-05T03:22:52;4.60;;;1.85;;
77170;SDS011;66144;50.020;14.422;2023-02-05T03:25:20;4.03;;;2.05;;
77170;SDS011;66144;50.020;14.422;2023-02-05T03:27:46;4.55;;;2.10;;
77170;SDS011;66144;50.020;14.422;2023-02-05T03:30:15;4.30;;;1.80;;
77170;SDS011;66144;50.020;14.422;2023-02-05T03:41:02;4.15;;;1.42;;
77170;SDS011;66144;50.020;14.422;2023-02-05T03:44:20;4.18;;;1.52;;
77170;SDS011;66144;50.020;14.422;2023-02-05T03:46:44;4.03;;;1.30;;
77170;SDS011;66144;50.020;14.422;2023-02-05T03:49:21;2.63;;;1.45;;
77170;SDS011;66144;50.020;14.422;2023-02-05T03:52:03;4.38;;;1.65;;
77170;SDS011;66144;50.020;14.422;2023-02-05T03:59:50;5.55;;;2.28;;
77170;SDS011;66144;50.020;14.422;2023-02-05T04:02:17;2.78;;;1.40;;
77170;SDS011;66144;50.020;14.422;2023-02-05T04:04:44;3.15;;;1.50;;
77170;SDS011;66144;50.020;14.422;2023-02-05T04:07:10;5.32;;;1.90;;
77170;SDS011;66144;50.020;14.422;2023-02-05T04:09:35;5.20;;;1.83;;
77170;SDS011;66144;50.020;14.422;2023-02-05T04:12:00;3.75;;;1.40;;
77170;SDS011;66144;50.020;14.422;2023-02-05T04:14:26;4.05;;;1.90;;
77170;SDS011;66144;50.020;14.422;2023-02-05T04:16:51;7.43;;;1.90;;
77170;SDS011;66144;50.020;14.422;2023-02-05T04:19:17;4.28;;;1.70;;
77170;SDS011;66144;50.020;14.422;2023-02-05T04:21:42;6.03;;;2.38;;
77170;SDS011;66144;50.020;14.422;2023-02-05T04:24:07;4.63;;;1.98;;
77170;SDS011;66144;50.020;14.422;2023-02-05T04:26:33;4.25;;;1.70;;
77170;SDS011;66144;50.020;14.422;2023-02-05T04:28:58;5.60;;;2.10;;
77170;SDS011;66144;50.020;14.422;2023-02-05T04:31:24;6.60;;;1.67;;
77170;SDS011;66144;50.020;14.422;2023-02-05T04:33:49;4.65;;;1.75;;
77170;SDS011;66144;50.020;14.422;2023-02-05T04:36:15;3.92;;;2.10;;
77170;SDS011;66144;50.020;14.422;2023-02-05T04:38:40;5.93;;;1.98;;
77170;SDS011;66144;50.020;14.422;2023-02-05T04:41:05;3.88;;;1.60;;
77170;SDS011;66144;50.020;14.422;2023-02-05T04:43:32;4.80;;;2.15;;
77170;SDS011;66144;50.020;14.422;2023-02-05T04:45:57;5.70;;;1.90;;
77170;SDS011;66144;50.020;14.422;2023-02-05T04:48:22;5.13;;;2.10;;
77170;SDS011;66144;50.020;14.422;2023-02-05T04:50:48;4.45;;;1.50;;
77170;SDS011;66144;50.020;14.422;2023-02-05T04:53:13;6.43;;;1.83;;
77170;SDS011;66144;50.020;14.422;2023-02-05T04:55:39;4.18;;;1.75;;
77170;SDS011;66144;50.020;14.422;2023-02-05T04:58:04;3.58;;;1.63;;
77170;SDS011;66144;50.020;14.422;2023-02-05T05:00:29;3.58;;;1.60;;
77170;SDS011;66144;50.020;14.422;2023-02-05T05:02:55;3.08;;;1.42;;
77170;SDS011;66144;50.020;14.422;2023-02-05T05:05:21;5.22;;;2.03;;
77170;SDS011;66144;50.020;14.422;2023-02-05T05:07:47;4.20;;;2.20;;
77170;SDS011;66144;50.020;14.422;2023-02-05T05:10:13;6.60;;;2.60;;
77170;SDS011;66144;50.020;14.422;2023-02-05T05:12:38;4.68;;;1.95;;
77170;SDS011;66144;50.020;14.422;2023-02-05T05:15:04;3.90;;;1.92;;
77170;SDS011;66144;50.020;14.422;2023-02-05T05:17:31;3.38;;;1.90;;
77170;SDS011;66144;50.020;14.422;2023-02-05T05:19:58;4.57;;;2.08;;
77170;SDS011;66144;50.020;14.422;2023-02-05T05:22:24;6.20;;;2.33;;
77170;SDS011;66144;50.020;14.422;2023-02-05T05:24:49;3.70;;;2.30;;
77170;SDS011;66144;50.020;14.422;2023-02-05T05:27:14;4.95;;;2.63;;
77170;SDS011;66144;50.020;14.422;2023-02-05T05:29:40;6.78;;;2.58;;
77170;SDS011;66144;50.020;14.422;2023-02-05T05:32:06;5.72;;;2.35;;
77170;SDS011;66144;50.020;14.422;2023-02-05T05:34:31;4.47;;;2.25;;
77170;SDS011;66144;50.020;14.422;2023-02-05T05:36:57;5.82;;;3.40;;
77170;SDS011;66144;50.020;14.422;2023-02-05T05:39:22;6.45;;;2.50;;
77170;SDS011;66144;50.020;14.422;2023-02-05T05:42:07;5.72;;;2.70;;
77170;SDS011;66144;50.020;14.422;2023-02-05T05:44:53;7.75;;;3.08;;
77170;SDS011;66144;50.020;14.422;2023-02-05T05:47:19;5.97;;;2.60;;
77170;SDS011;66144;50.020;14.422;2023-02-05T05:49:45;5.38;;;2.72;;
77170;SDS011;66144;50.020;14.422;2023-02-05T05:52:10;5.50;;;2.80;;
77170;SDS011;66144;50.020;14.422;2023-02-05T05:54:36;9.07;;;3.00;;
77170;SDS011;66144;50.020;14.422;2023-02-05T05:57:02;7.18;;;2.88;;
77170;SDS011;66144;50.020;14.422;2023-02-05T05:59:27;6.38;;;3.20;;
77170;SDS011;66144;50.020;14.422;2023-02-05T06:01:53;6.35;;;2.60;;
77170;SDS011;66144;50.020;14.422;2023-02-05T06:04:18;5.88;;;2.95;;
77170;SDS011;66144;50.020;14.422;2023-02-05T06:06:44;5.68;;;2.47;;
77170;SDS011;66144;50.020;14.422;2023-02-05T06:09:09;5.40;;;2.58;;
77170;SDS011;66144;50.020;14.422;2023-02-05T06:11:34;6.45;;;2.92;;
77170;SDS011;66144;50.020;14.422;2023-02-05T06:14:00;6.90;;;2.72;;
77170;SDS011;66144;50.020;14.422;2023-02-05T06:16:25;4.00;;;2.60;;
77170;SDS011;66144;50.020;14.422;2023-02-05T06:18:51;7.30;;;2.88;;
77170;SDS011;66144;50.020;14.422;2023-02-05T06:21:18;7.20;;;3.17;;
77170;SDS011;66144;50.020;14.422;2023-02-05T06:23:43;7.65;;;3.00;;
77170;SDS011;66144;50.020;14.422;2023-02-05T06:26:09;7.25;;;3.00;;
77170;SDS011;66144;50.020;14.422;2023-02-05T06:28:34;6.82;;;3.13;;
77170;SDS011;66144;50.020;14.422;2023-02-05T06:31:00;5.03;;;2.85;;
77170;SDS011;66144;50.020;14.422;2023-02-05T06:33:25;6.75;;;2.72;;
77170;SDS011;66144;50.020;14.422;2023-02-05T06:35:50;5.95;;;3.03;;
77170;SDS011;66144;50.020;14.422;2023-02-05T06:38:16;7.20;;;3.55;;
77170;SDS011;66144;50.020;14.422;2023-02-05T06:40:41;8.00;;;3.42;;
77170;SDS011;66144;50.020;14.422;2023-02-05T06:43:06;8.85;;;4.38;;
77170;SDS011;66144;50.020;14.422;2023-02-05T06:45:32;5.82;;;3.17;;
77170;SDS011;66144;50.020;14.422;2023-02-05T06:47:57;6.57;;;3.17;;
77170;SDS011;66144;50.020;14.422;2023-02-05T06:50:23;6.75;;;3.67;;
77170;SDS011;66144;50.020;14.422;2023-02-05T06:55:15;5.00;;;3.05;;
77170;SDS011;66144;50.020;14.422;2023-02-05T06:57:41;4.57;;;2.38;;
77170;SDS011;66144;50.020;14.422;2023-02-05T07:00:06;5.65;;;2.90;;
77170;SDS011;66144;50.020;14.422;2023-02-05T07:02:34;6.95;;;3.05;;
77170;SDS011;66144;50.020;14.422;2023-02-05T07:04:59;7.22;;;3.38;;
77170;SDS011;66144;50.020;14.422;2023-02-05T07:07:28;5.72;;;2.72;;
77170;SDS011;66144;50.020;14.422;2023-02-05T07:09:53;5.45;;;2.65;;
77170;SDS011;66144;50.020;14.422;2023-02-05T07:12:18;7.22;;;2.92;;
77170;SDS011;66144;50.020;14.422;2023-02-05T07:14:44;4.90;;;3.00;;
77170;SDS011;66144;50.020;14.422;2023-02-05T07:17:09;6.40;;;3.03;;
77170;SDS011;66144;50.020;14.422;2023-02-05T07:19:35;6.57;;;2.83;;
77170;SDS011;66144;50.020;14.422;2023-02-05T07:22:01;6.13;;;2.63;;
77170;SDS011;66144;50.020;14.422;2023-02-05T07:24:27;5.68;;;3.10;;
77170;SDS011;66144;50.020;14.422;2023-02-05T07:26:52;8.32;;;3.20;;
77170;SDS011;66144;50.020;14.422;2023-02-05T07:29:17;6.68;;;2.65;;
77170;SDS011;66144;50.020;14.422;2023-02-05T07:31:43;7.15;;;2.92;;
77170;SDS011;66144;50.020;14.422;2023-02-05T07:34:08;7.63;;;3.47;;
77170;SDS011;66144;50.020;14.422;2023-02-05T07:36:34;9.60;;;3.40;;
77170;SDS011;66144;50.020;14.422;2023-02-05T07:38:59;8.35;;;3.35;;
77170;SDS011;66144;50.020;14.422;2023-02-05T07:41:25;5.93;;;3.47;;
77170;SDS011;66144;50.020;14.422;2023-02-05T07:43:50;7.47;;;3.65;;
77170;SDS011;66144;50.020;14.422;2023-02-05T07:48:42;7.72;;;3.30;;
77170;SDS011;66144;50.020;14.422;2023-02-05T07:51:11;8.07;;;3.47;;
77170;SDS011;66144;50.020;14.422;2023-02-05T07:53:41;7.88;;;3.58;;
77170;SDS011;66144;50.020;14.422;2023-02-05T07:56:06;7.13;;;3.28;;
77170;SDS011;66144;50.020;14.422;2023-02-05T07:58:31;7.32;;;2.92;;
77170;SDS011;66144;50.020;14.422;2023-02-05T08:01:00;9.82;;;3.75;;
77170;SDS011;66144;50.020;14.422;2023-02-05T08:03:27;7.13;;;3.47;;
77170;SDS011;66144;50.020;14.422;2023-02-05T08:05:52;8.73;;;3.72;;
77170;SDS011;66144;50.020;14.422;2023-02-05T08:08:18;10.90;;;4.90;;
77170;SDS011;66144;50.020;14.422;2023-02-05T08:10:43;12.95;;;4.97;;
77170;SDS011;66144;50.020;14.422;2023-02-05T08:13:09;7.43;;;3.97;;
77170;SDS011;66144;50.020;14.422;2023-02-05T08:15:36;9.48;;;5.03;;
77170;SDS011;66144;50.020;14.422;2023-02-05T08:18:03;10.18;;;5.18;;
77170;SDS011;66144;50.020;14.422;2023-02-05T08:20:28;8.32;;;4.20;;
77170;SDS011;66144;50.020;14.422;2023-02-05T08:22:54;9.07;;;4.00;;
77170;SDS011;66144;50.020;14.422;2023-02-05T08:25:19;7.80;;;4.28;;
77170;SDS011;66144;50.020;14.422;2023-02-05T08:27:46;7.32;;;3.47;;
77170;SDS011;66144;50.020;14.422;2023-02-05T08:30:13;8.65;;;3.53;;
77170;SDS011;66144;50.020;14.422;2023-02-05T08:32:40;7.55;;;3.65;;
77170;SDS011;66144;50.020;14.422;2023-02-05T08:35:06;7.70;;;4.00;;
77170;SDS011;66144;50.020;14.422;2023-02-05T08:37:32;8.68;;;4.00;;
77170;SDS011;66144;50.020;14.422;2023-02-05T08:39:57;10.35;;;4.00;;
77170;SDS011;66144;50.020;14.422;2023-02-05T08:42:22;10.45;;;4.88;;
77170;SDS011;66144;50.020;14.422;2023-02-05T08:44:48;10.07;;;3.78;;
77170;SDS011;66144;50.020;14.422;2023-02-05T08:47:17;7.70;;;3.65;;
77170;SDS011;66144;50.020;14.422;2023-02-05T08:49:43;8.18;;;3.63;;
77170;SDS011;66144;50.020;14.422;2023-02-05T08:52:08;8.13;;;3.90;;
77170;SDS011;66144;50.020;14.422;2023-02-05T08:54:34;8.07;;;3.92;;
77170;SDS011;66144;50.020;14.422;2023-02-05T08:56:59;9.27;;;4.22;;
77170;SDS011;66144;50.020;14.422;2023-02-05T08:59:25;7.25;;;3.67;;
77170;SDS011;66144;50.020;14.422;2023-02-05T09:01:50;7.65;;;3.85;;
77170;SDS011;66144;50.020;14.422;2023-02-05T09:04:17;8.05;;;3.50;;
77170;SDS011;66144;50.020;14.422;2023-02-05T09:06:44;8.10;;;3.50;;
77170;SDS011;66144;50.020;14.422;2023-02-05T09:09:11;8.65;;;5.18;;
77170;SDS011;66144;50.020;14.422;2023-02-05T09:11:37;9.38;;;3.40;;
77170;SDS011;66144;50.020;14.422;2023-02-05T09:14:03;8.90;;;4.25;;
77170;SDS011;66144;50.020;14.422;2023-02-05T09:16:29;10.43;;;3.92;;
77170;SDS011;66144;50.020;14.422;2023-02-05T09:18:55;6.22;;;3.38;;
77170;SDS011;66144;50.020;14.422;2023-02-05T09:21:22;6.13;;;3.20;;
77170;SDS011;66144;50.020;14.422;2023-02-05T09:23:48;6.80;;;3.90;;
77170;SDS011;66144;50.020;14.422;2023-02-05T09:26:14;6.63;;;3.13;;
77170;SDS011;66144;50.020;14.422;2023-02-05T09:28:39;8.10;;;3.75;;
77170;SDS011;66144;50.020;14.422;2023-02-05T09:31:06;7.80;;;3.92;;
77170;SDS011;66144;50.020;14.422;2023-02-05T09:33:32;6.20;;;2.97;;
77170;SDS011;66144;50.020;14.422;2023-02-05T09:36:03;6.32;;;3.15;;
77170;SDS011;66144;50.020;14.422;2023-02-05T09:38:30;6.72;;;3.50;;
77170;SDS011;66144;50.020;14.422;2023-02-05T09:41:00;6.07;;;2.72;;
77170;SDS011;66144;50.020;14.422;2023-02-05T09:46:13;5.00;;;3.13;;
77170;SDS011;66144;50.020;14.422;2023-02-05T09:51:39;5.43;;;2.80;;
77170;SDS011;66144;50.020;14.422;2023-02-05T09:54:27;7.38;;;3.00;;
77170;SDS011;66144;50.020;14.422;2023-02-05T09:57:03;5.32;;;2.30;;
77170;SDS011;66144;50.020;14.422;2023-02-05T09:59:32;5.63;;;2.60;;
77170;SDS011;66144;50.020;14.422;2023-02-05T10:01:59;6.65;;;3.38;;
77170;SDS011;66144;50.020;14.422;2023-02-05T10:04:26;6.65;;;3.00;;
77170;SDS011;66144;50.020;14.422;2023-02-05T10:36:58;6.00;;;2.70;;
77170;SDS011;66144;50.020;14.422;2023-02-05T10:39:28;4.10;;;2.08;;
77170;SDS011;66144;50.020;14.422;2023-02-05T10:41:59;5.18;;;2.60;;
77170;SDS011;66144;50.020;14.422;2023-02-05T10:44:33;4.47;;;2.53;;
77170;SDS011;66144;50.020;14.422;2023-02-05T10:47:02;4.35;;;1.90;;
77170;SDS011;66144;50.020;14.422;2023-02-05T10:52:19;6.07;;;2.10;;
77170;SDS011;66144;50.020;14.422;2023-02-05T10:54:44;3.95;;;2.20;;
77170;SDS011;66144;50.020;14.422;2023-02-05T10:57:15;3.92;;;2.10;;
77170;SDS011;66144;50.020;14.422;2023-02-05T11:00:04;3.28;;;1.60;;
77170;SDS011;66144;50.020;14.422;2023-02-05T11:02:39;3.70;;;1.85;;
77170;SDS011;66144;50.020;14.422;2023-02-05T11:05:12;5.50;;;1.77;;
77170;SDS011;66144;50.020;14.422;2023-02-05T11:07:44;4.65;;;1.85;;
77170;SDS011;66144;50.020;14.422;2023-02-05T11:10:12;6.50;;;2.83;;
77170;SDS011;66144;50.020;14.422;2023-02-05T11:12:38;6.03;;;1.77;;
77170;SDS011;66144;50.020;14.422;2023-02-05T11:15:04;3.83;;;1.60;;
77170;SDS011;66144;50.020;14.422;2023-02-05T11:17:34;6.88;;;3.47;;
77170;SDS011;66144;50.020;14.422;2023-02-05T11:22:32;3.80;;;1.40;;
77170;SDS011;66144;50.020;14.422;2023-02-05T11:27:48;3.20;;;1.60;;
77170;SDS011;66144;50.020;14.422;2023-02-05T11:32:49;3.67;;;1.58;;
77170;SDS011;66144;50.020;14.422;2023-02-05T11:35:29;3.35;;;1.40;;
77170;SDS011;66144;50.020;14.422;2023-02-05T11:40:33;4.60;;;1.80;;
77170;SDS011;66144;50.020;14.422;2023-02-05T11:46:13;4.78;;;2.10;;
77170;SDS011;66144;50.020;14.422;2023-02-05T11:48:42;3.97;;;1.77;;
77170;SDS011;66144;50.020;14.422;2023-02-05T11:51:13;3.88;;;1.60;;
77170;SDS011;66144;50.020;14.422;2023-02-05T11:53:49;4.95;;;1.83;;
77170;SDS011;66144;50.020;14.422;2023-02-05T11:56:20;4.25;;;1.52;;
77170;SDS011;66144;50.020;14.422;2023-02-05T11:59:01;3.50;;;1.88;;
77170;SDS011;66144;50.020;14.422;2023-02-05T12:01:26;3.67;;;1.90;;
77170;SDS011;66144;50.020;14.422;2023-02-05T12:06:23;4.13;;;1.80;;
77170;SDS011;66144;50.020;14.422;2023-02-05T12:08:54;4.68;;;1.75;;
77170;SDS011;66144;50.020;14.422;2023-02-05T12:14:34;5.45;;;1.92;;
77170;SDS011;66144;50.020;14.422;2023-02-05T12:19:52;3.33;;;1.33;;
77170;SDS011;66144;50.020;14.422;2023-02-05T12:33:22;3.35;;;1.60;;
77170;SDS011;66144;50.020;14.422;2023-02-05T12:41:35;3.47;;;1.48;;
77170;SDS011;66144;50.020;14.422;2023-02-05T12:44:23;2.90;;;1.58;;
77170;SDS011;66144;50.020;14.422;2023-02-05T12:52:43;4.32;;;1.52;;
77170;SDS011;66144;50.020;14.422;2023-02-05T12:58:06;2.88;;;1.10;;
77170;SDS011;66144;50.020;14.422;2023-02-05T13:00:52;5.22;;;1.45;;
77170;SDS011;66144;50.020;14.422;2023-02-05T13:14:05;2.60;;;1.40;;
77170;SDS011;66144;50.020;14.422;2023-02-05T13:16:39;3.15;;;1.33;;
77170;SDS011;66144;50.020;14.422;2023-02-05T13:21:50;3.17;;;1.65;;
77170;SDS011;66144;50.020;14.422;2023-02-05T13:24:40;2.33;;;1.25;;
77170;SDS011;66144;50.020;14.422;2023-02-05T13:27:37;2.90;;;1.38;;
77170;SDS011;66144;50.020;14.422;2023-02-05T13:30:27;3.15;;;1.50;;
77170;SDS011;66144;50.020;14.422;2023-02-05T13:32:58;4.05;;;1.40;;
77170;SDS011;66144;50.020;14.422;2023-02-05T13:35:30;2.05;;;1.05;;
77170;SDS011;66144;50.020;14.422;2023-02-05T13:38:12;2.75;;;1.10;;
77170;SDS011;66144;50.020;14.422;2023-02-05T13:43:59;2.90;;;1.40;;
77170;SDS011;66144;50.020;14.422;2023-02-05T13:58:04;3.05;;;1.40;;
77170;SDS011;66144;50.020;14.422;2023-02-05T14:00:32;2.42;;;1.48;;
77170;SDS011;66144;50.020;14.422;2023-02-05T14:02:59;4.13;;;1.65;;
77170;SDS011;66144;50.020;14.422;2023-02-05T14:05:32;3.65;;;1.58;;
77170;SDS011;66144;50.020;14.422;2023-02-05T14:08:00;2.92;;;1.58;;
77170;SDS011;66144;50.020;14.422;2023-02-05T14:10:28;4.63;;;1.63;;
77170;SDS011;66144;50.020;14.422;2023-02-05T14:16:42;5.10;;;1.55;;
77170;SDS011;66144;50.020;14.422;2023-02-05T14:18:49;5.93;;;1.88;;
77170;SDS011;66144;50.020;14.422;2023-02-05T14:23:56;3.25;;;1.75;;
77170;SDS011;66144;50.020;14.422;2023-02-05T14:26:55;3.25;;;1.60;;
77170;SDS011;66144;50.020;14.422;2023-02-05T14:30:01;3.95;;;1.75;;
77170;SDS011;66144;50.020;14.422;2023-02-05T14:32:10;5.55;;;1.60;;
77170;SDS011;66144;50.020;14.422;2023-02-05T14:39:28;3.72;;;1.77;;
77170;SDS011;66144;50.020;14.422;2023-02-05T14:42:00;3.55;;;1.55;;
77170;SDS011;66144;50.020;14.422;2023-02-05T14:44:32;5.45;;;2.03;;
77170;SDS011;66144;50.020;14.422;2023-02-05T14:47:25;4.28;;;1.90;;
77170;SDS011;66144;50.020;14.422;2023-02-05T14:49:51;4.72;;;2.05;;
77170;SDS011;66144;50.020;14.422;2023-02-05T15:00:21;4.40;;;1.90;;
77170;SDS011;66144;50.020;14.422;2023-02-05T15:19:29;5.38;;;1.75;;
77170;SDS011;66144;50.020;14.422;2023-02-05T15:21:58;3.83;;;1.88;;
77170;SDS011;66144;50.020;14.422;2023-02-05T15:24:26;3.80;;;1.73;;
77170;SDS011;66144;50.020;14.422;2023-02-05T15:31:59;3.78;;;1.80;;
77170;SDS011;66144;50.020;14.422;2023-02-05T15:37:03;6.32;;;2.40;;
77170;SDS011;66144;50.020;14.422;2023-02-05T15:42:20;3.78;;;2.55;;
77170;SDS011;66144;50.020;14.422;2023-02-05T15:47:41;5.28;;;2.47;;
77170;SDS011;66144;50.020;14.422;2023-02-05T15:50:08;5.10;;;2.25;;
77170;SDS011;66144;50.020;14.422;2023-02-05T15:52:38;6.20;;;2.70;;
77170;SDS011;66144;50.020;14.422;2023-02-05T15:55:14;11.40;;;3.20;;
77170;SDS011;66144;50.020;14.422;2023-02-05T15:57:42;6.75;;;2.80;;
77170;SDS011;66144;50.020;14.422;2023-02-05T16:00:08;5.45;;;2.92;;
77170;SDS011;66144;50.020;14.422;2023-02-05T16:02:35;6.40;;;3.35;;
77170;SDS011;66144;50.020;14.422;2023-02-05T16:05:02;7.85;;;2.85;;
77170;SDS011;66144;50.020;14.422;2023-02-05T16:07:41;5.97;;;2.30;;
77170;SDS011;66144;50.020;14.422;2023-02-05T16:10:19;6.55;;;2.72;;
77170;SDS011;66144;50.020;14.422;2023-02-05T16:20:53;7.10;;;3.40;;
77170;SDS011;66144;50.020;14.422;2023-02-05T16:23:22;12.85;;;5.25;;
77170;SDS011;66144;50.020;14.422;2023-02-05T16:25:56;12.60;;;4.57;;
77170;SDS011;66144;50.020;14.422;2023-02-05T16:31:01;12.75;;;6.28;;
77170;SDS011;66144;50.020;14.422;2023-02-05T16:33:37;14.75;;;7.70;;
77170;SDS011;66144;50.020;14.422;2023-02-05T16:36:12;10.77;;;5.38;;
77170;SDS011;66144;50.020;14.422;2023-02-05T16:38:48;11.10;;;7.15;;
77170;SDS011;66144;50.020;14.422;2023-02-05T16:44:46;9.20;;;4.75;;
77170;SDS011;66144;50.020;14.422;2023-02-05T16:49:44;9.88;;;4.90;;
77170;SDS011;66144;50.020;14.422;2023-02-05T16:52:24;9.20;;;4.43;;
77170;SDS011;66144;50.020;14.422;2023-02-05T16:54:51;9.52;;;5.13;;
77170;SDS011;66144;50.020;14.422;2023-02-05T16:57:22;10.70;;;5.60;;
77170;SDS011;66144;50.020;14.422;2023-02-05T16:59:53;12.90;;;7.03;;
77170;SDS011;66144;50.020;14.422;2023-02-05T17:02:37;14.68;;;7.90;;
77170;SDS011;66144;50.020;14.422;2023-02-05T17:05:05;12.95;;;6.93;;
77170;SDS011;66144;50.020;14.422;2023-02-05T17:07:35;12.85;;;6.50;;
77170;SDS011;66144;50.020;14.422;2023-02-05T17:10:14;13.38;;;6.80;;
77170;SDS011;66144;50.020;14.422;2023-02-05T17:13:02;12.70;;;5.85;;
77170;SDS011;66144;50.020;14.422;2023-02-05T17:20:48;10.70;;;7.13;;
77170;SDS011;66144;50.020;14.422;2023-02-05T17:23:14;11.35;;;6.70;;
77170;SDS011;66144;50.020;14.422;2023-02-05T17:25:42;11.88;;;6.80;;
77170;SDS011;66144;50.020;14.422;2023-02-05T17:28:24;11.25;;;6.30;;
77170;SDS011;66144;50.020;14.422;2023-02-05T17:30:51;9.57;;;5.72;;
77170;SDS011;66144;50.020;14.422;2023-02-05T17:33:19;11.85;;;5.30;;
77170;SDS011;66144;50.020;14.422;2023-02-05T17:35:47;9.35;;;4.90;;
77170;SDS011;66144;50.020;14.422;2023-02-05T17:38:13;8.25;;;5.18;;
77170;SDS011;66144;50.020;14.422;2023-02-05T17:40:39;10.38;;;5.82;;
77170;SDS011;66144;50.020;14.422;2023-02-05T17:43:05;10.25;;;6.40;;
77170;SDS011;66144;50.020;14.422;2023-02-05T17:45:31;9.55;;;5.00;;
77170;SDS011;66144;50.020;14.422;2023-02-05T17:47:58;12.07;;;5.00;;
77170;SDS011;66144;50.020;14.422;2023-02-05T17:50:24;10.30;;;6.13;;
77170;SDS011;66144;50.020;14.422;2023-02-05T17:52:49;9.45;;;5.78;;
77170;SDS011;66144;50.020;14.422;2023-02-05T17:55:17;13.30;;;6.03;;
77170;SDS011;66144;50.020;14.422;2023-02-05T17:57:44;13.25;;;4.90;;
77170;SDS011;66144;50.020;14.422;2023-02-05T18:00:21;11.73;;;6.75;;
77170;SDS011;66144;50.020;14.422;2023-02-05T18:02:48;23.10;;;9.85;;
77170;SDS011;66144;50.020;14.422;2023-02-05T18:05:14;25.48;;;13.68;;
77170;SDS011;66144;50.020;14.422;2023-02-05T18:07:50;23.08;;;12.05;;
77170;SDS011;66144;50.020;14.422;2023-02-05T18:10:19;19.40;;;10.18;;
77170;SDS011;66144;50.020;14.422;2023-02-05T18:12:47;18.75;;;10.30;;
77170;SDS011;66144;50.020;14.422;2023-02-05T18:15:12;19.30;;;10.02;;
77170;SDS011;66144;50.020;14.422;2023-02-05T18:17:38;14.82;;;7.00;;
77170;SDS011;66144;50.020;14.422;2023-02-05T18:20:05;10.82;;;5.95;;
77170;SDS011;66144;50.020;14.422;2023-02-05T18:22:32;16.35;;;7.32;;
77170;SDS011;66144;50.020;14.422;2023-02-05T18:24:58;11.88;;;6.45;;
77170;SDS011;66144;50.020;14.422;2023-02-05T18:27:23;12.25;;;6.80;;
77170;SDS011;66144;50.020;14.422;2023-02-05T18:29:50;15.25;;;6.20;;